sensor_id;sensor_type;location;lat;lon;timestamp;P1;durP1;ratioP1;P2;durP2;ratioP2
52274;SDS011;38228;50.940;4.024;2023-11-18T00:00:48;35.72;;;19.77;;
52274;SDS011;38228;50.940;4.024;2023-11-18T00:03:14;30.23;;;18.35;;
52274;SDS011;38228;50.940;4.024;2023-11-18T00:05:40;35.17;;;19.98;;
52274;SDS011;38228;50.940;4.024;2023-11-18T00:08:06;32.13;;;19.48;;
52274;SDS011;38228;50.940;4.024;2023-11-18T00:10:31;29.77;;;19.50;;
52274;SDS011;38228;50.940;4.024;2023-11-18T00:12:57;35.10;;;19.33;;
52274;SDS011;38228;50.940;4.024;2023-11-18T00:15:23;35.30;;;19.20;;
52274;SDS011;38228;50.940;4.024;2023-11-18T00:17:48;35.75;;;19.30;;
52274;SDS011;38228;50.940;4.024;2023-11-18T00:20:14;38.42;;;18.92;;
52274;SDS011;38228;50.940;4.024;2023-11-18T00:22:41;34.85;;;19.13;;
52274;SDS011;38228;50.940;4.024;2023-11-18T00:25:07;28.42;;;17.30;;
52274;SDS011;38228;50.940;4.024;2023-11-18T00:27:34;32.42;;;17.95;;
52274;SDS011;38228;50.940;4.024;2023-11-18T00:30:03;29.40;;;17.55;;
52274;SDS011;38228;50.940;4.024;2023-11-18T00:32:38;33.20;;;16.83;;
52274;SDS011;38228;50.940;4.024;2023-11-18T00:35:04;27.42;;;16.08;;
52274;SDS011;38228;50.940;4.024;2023-11-18T00:37:31;30.23;;;16.65;;
52274;SDS011;38228;50.940;4.024;2023-11-18T00:39:57;27.98;;;15.82;;
52274;SDS011;38228;50.940;4.024;2023-11-18T00:42:22;27.95;;;14.43;;
52274;SDS011;38228;50.940;4.024;2023-11-18T00:44:48;29.05;;;15.43;;
52274;SDS011;38228;50.940;4.024;2023-11-18T00:47:14;26.08;;;15.45;;
52274;SDS011;38228;50.940;4.024;2023-11-18T00:49:39;24.67;;;13.85;;
52274;SDS011;38228;50.940;4.024;2023-11-18T00:52:05;24.73;;;14.00;;
52274;SDS011;38228;50.940;4.024;2023-11-18T00:54:31;26.00;;;14.30;;
52274;SDS011;38228;50.940;4.024;2023-11-18T00:56:57;29.25;;;14.77;;
52274;SDS011;38228;50.940;4.024;2023-11-18T00:59:22;25.65;;;14.10;;
52274;SDS011;38228;50.940;4.024;2023-11-18T01:01:48;25.55;;;14.43;;
52274;SDS011;38228;50.940;4.024;2023-11-18T01:04:14;30.70;;;14.13;;
52274;SDS011;38228;50.940;4.024;2023-11-18T01:06:41;31.23;;;14.68;;
52274;SDS011;38228;50.940;4.024;2023-11-18T01:09:07;26.77;;;13.80;;
52274;SDS011;38228;50.940;4.024;2023-11-18T01:11:34;31.17;;;15.10;;
52274;SDS011;38228;50.940;4.024;2023-11-18T01:14:01;28.05;;;15.30;;
52274;SDS011;38228;50.940;4.024;2023-11-18T01:16:27;29.08;;;14.55;;
52274;SDS011;38228;50.940;4.024;2023-11-18T01:18:53;33.85;;;15.88;;
52274;SDS011;38228;50.940;4.024;2023-11-18T01:21:19;30.15;;;14.32;;
52274;SDS011;38228;50.940;4.024;2023-11-18T01:23:46;30.63;;;15.50;;
52274;SDS011;38228;50.940;4.024;2023-11-18T01:26:13;29.23;;;15.38;;
52274;SDS011;38228;50.940;4.024;2023-11-18T01:28:40;25.95;;;15.40;;
52274;SDS011;38228;50.940;4.024;2023-11-18T01:31:10;32.22;;;15.75;;
52274;SDS011;38228;50.940;4.024;2023-11-18T01:33:36;28.90;;;15.23;;
52274;SDS011;38228;50.940;4.024;2023-11-18T01:36:05;28.38;;;15.18;;
52274;SDS011;38228;50.940;4.024;2023-11-18T01:38:36;24.10;;;15.00;;
52274;SDS011;38228;50.940;4.024;2023-11-18T01:41:05;33.33;;;14.88;;
52274;SDS011;38228;50.940;4.024;2023-11-18T01:43:31;33.47;;;15.35;;
52274;SDS011;38228;50.940;4.024;2023-11-18T01:45:58;27.65;;;13.68;;
52274;SDS011;38228;50.940;4.024;2023-11-18T01:48:27;29.88;;;13.13;;
52274;SDS011;38228;50.940;4.024;2023-11-18T01:50:58;28.88;;;13.90;;
52274;SDS011;38228;50.940;4.024;2023-11-18T01:53:24;28.90;;;13.25;;
52274;SDS011;38228;50.940;4.024;2023-11-18T01:55:52;25.02;;;12.80;;
52274;SDS011;38228;50.940;4.024;2023-11-18T01:58:18;24.15;;;12.63;;
52274;SDS011;38228;50.940;4.024;2023-11-18T02:00:45;26.77;;;12.30;;
52274;SDS011;38228;50.940;4.024;2023-11-18T02:03:14;25.42;;;13.00;;
52274;SDS011;38228;50.940;4.024;2023-11-18T02:05:40;27.55;;;12.25;;
52274;SDS011;38228;50.940;4.024;2023-11-18T02:08:07;25.92;;;11.73;;
52274;SDS011;38228;50.940;4.024;2023-11-18T02:10:33;20.23;;;11.45;;
52274;SDS011;38228;50.940;4.024;2023-11-18T02:15:38;23.67;;;10.38;;
52274;SDS011;38228;50.940;4.024;2023-11-18T02:18:06;22.85;;;10.82;;
52274;SDS011;38228;50.940;4.024;2023-11-18T02:20:34;22.77;;;10.95;;
52274;SDS011;38228;50.940;4.024;2023-11-18T02:23:00;23.45;;;9.52;;
52274;SDS011;38228;50.940;4.024;2023-11-18T02:25:27;19.65;;;9.48;;
52274;SDS011;38228;50.940;4.024;2023-11-18T02:27:57;22.75;;;10.07;;
52274;SDS011;38228;50.940;4.024;2023-11-18T02:30:23;21.77;;;10.10;;
52274;SDS011;38228;50.940;4.024;2023-11-18T02:32:59;19.20;;;10.15;;
52274;SDS011;38228;50.940;4.024;2023-11-18T02:35:34;20.70;;;9.98;;
52274;SDS011;38228;50.940;4.024;2023-11-18T02:38:05;22.80;;;9.63;;
52274;SDS011;38228;50.940;4.024;2023-11-18T02:40:33;18.63;;;9.70;;
52274;SDS011;38228;50.940;4.024;2023-11-18T02:43:01;18.95;;;10.25;;
52274;SDS011;38228;50.940;4.024;2023-11-18T02:45:30;23.30;;;9.38;;
52274;SDS011;38228;50.940;4.024;2023-11-18T02:47:57;21.88;;;9.10;;
52274;SDS011;38228;50.940;4.024;2023-11-18T02:50:26;19.13;;;9.05;;
52274;SDS011;38228;50.940;4.024;2023-11-18T02:52:52;27.77;;;9.13;;
52274;SDS011;38228;50.940;4.024;2023-11-18T02:55:18;23.08;;;9.50;;
52274;SDS011;38228;50.940;4.024;2023-11-18T02:57:47;22.15;;;7.38;;
52274;SDS011;38228;50.940;4.024;2023-11-18T03:00:14;15.45;;;7.93;;
52274;SDS011;38228;50.940;4.024;2023-11-18T03:02:44;21.80;;;8.25;;
52274;SDS011;38228;50.940;4.024;2023-11-18T03:05:12;15.50;;;7.72;;
52274;SDS011;38228;50.940;4.024;2023-11-18T03:07:38;19.63;;;7.53;;
52274;SDS011;38228;50.940;4.024;2023-11-18T03:10:06;20.85;;;8.98;;
52274;SDS011;38228;50.940;4.024;2023-11-18T03:12:37;20.50;;;8.95;;
52274;SDS011;38228;50.940;4.024;2023-11-18T03:15:06;24.83;;;8.85;;
52274;SDS011;38228;50.940;4.024;2023-11-18T03:17:34;25.33;;;8.57;;
52274;SDS011;38228;50.940;4.024;2023-11-18T03:20:00;18.27;;;7.80;;
52274;SDS011;38228;50.940;4.024;2023-11-18T03:22:26;24.15;;;7.93;;
52274;SDS011;38228;50.940;4.024;2023-11-18T03:24:51;22.63;;;7.60;;
52274;SDS011;38228;50.940;4.024;2023-11-18T03:27:17;21.27;;;7.45;;
52274;SDS011;38228;50.940;4.024;2023-11-18T03:29:43;19.52;;;7.55;;
52274;SDS011;38228;50.940;4.024;2023-11-18T03:32:11;18.00;;;7.20;;
52274;SDS011;38228;50.940;4.024;2023-11-18T03:34:37;19.58;;;7.60;;
52274;SDS011;38228;50.940;4.024;2023-11-18T03:37:03;12.95;;;6.60;;
52274;SDS011;38228;50.940;4.024;2023-11-18T03:39:29;19.65;;;6.72;;
52274;SDS011;38228;50.940;4.024;2023-11-18T03:41:55;19.48;;;6.97;;
52274;SDS011;38228;50.940;4.024;2023-11-18T03:44:22;18.60;;;6.75;;
52274;SDS011;38228;50.940;4.024;2023-11-18T03:46:49;15.70;;;6.10;;
52274;SDS011;38228;50.940;4.024;2023-11-18T03:49:15;13.80;;;6.22;;
52274;SDS011;38228;50.940;4.024;2023-11-18T03:51:40;17.65;;;6.38;;
52274;SDS011;38228;50.940;4.024;2023-11-18T03:54:06;16.58;;;6.50;;
52274;SDS011;38228;50.940;4.024;2023-11-18T03:56:33;21.90;;;6.55;;
52274;SDS011;38228;50.940;4.024;2023-11-18T03:58:59;20.38;;;6.75;;
52274;SDS011;38228;50.940;4.024;2023-11-18T04:01:25;17.67;;;6.10;;
52274;SDS011;38228;50.940;4.024;2023-11-18T04:03:54;20.38;;;6.50;;
52274;SDS011;38228;50.940;4.024;2023-11-18T04:06:23;22.15;;;6.38;;
52274;SDS011;38228;50.940;4.024;2023-11-18T04:08:49;19.42;;;6.90;;
52274;SDS011;38228;50.940;4.024;2023-11-18T04:11:15;19.63;;;6.68;;
52274;SDS011;38228;50.940;4.024;2023-11-18T04:13:41;21.58;;;6.95;;
52274;SDS011;38228;50.940;4.024;2023-11-18T04:16:11;23.10;;;7.75;;
52274;SDS011;38228;50.940;4.024;2023-11-18T04:18:40;26.92;;;7.32;;
52274;SDS011;38228;50.940;4.024;2023-11-18T04:21:07;21.60;;;7.10;;
52274;SDS011;38228;50.940;4.024;2023-11-18T04:23:37;23.77;;;7.43;;
52274;SDS011;38228;50.940;4.024;2023-11-18T04:26:03;24.70;;;6.55;;
52274;SDS011;38228;50.940;4.024;2023-11-18T04:28:30;25.67;;;7.55;;
52274;SDS011;38228;50.940;4.024;2023-11-18T04:30:56;27.70;;;6.72;;
52274;SDS011;38228;50.940;4.024;2023-11-18T04:33:22;22.00;;;6.93;;
52274;SDS011;38228;50.940;4.024;2023-11-18T04:35:50;33.22;;;6.82;;
52274;SDS011;38228;50.940;4.024;2023-11-18T04:38:16;24.13;;;7.30;;
52274;SDS011;38228;50.940;4.024;2023-11-18T04:40:42;28.60;;;7.68;;
52274;SDS011;38228;50.940;4.024;2023-11-18T04:43:09;30.35;;;7.25;;
52274;SDS011;38228;50.940;4.024;2023-11-18T04:45:36;25.55;;;6.82;;
52274;SDS011;38228;50.940;4.024;2023-11-18T04:48:02;23.10;;;6.45;;
52274;SDS011;38228;50.940;4.024;2023-11-18T04:50:29;25.75;;;7.03;;
52274;SDS011;38228;50.940;4.024;2023-11-18T04:52:55;21.85;;;6.38;;
52274;SDS011;38228;50.940;4.024;2023-11-18T04:55:21;22.83;;;6.43;;
52274;SDS011;38228;50.940;4.024;2023-11-18T04:57:47;19.75;;;5.55;;
52274;SDS011;38228;50.940;4.024;2023-11-18T05:00:13;18.65;;;5.03;;
52274;SDS011;38228;50.940;4.024;2023-11-18T05:02:42;20.20;;;5.47;;
52274;SDS011;38228;50.940;4.024;2023-11-18T05:05:08;15.40;;;4.68;;
52274;SDS011;38228;50.940;4.024;2023-11-18T05:07:34;22.42;;;5.32;;
52274;SDS011;38228;50.940;4.024;2023-11-18T05:10:00;20.75;;;5.40;;
52274;SDS011;38228;50.940;4.024;2023-11-18T05:12:28;15.00;;;5.13;;
52274;SDS011;38228;50.940;4.024;2023-11-18T05:14:55;21.25;;;5.53;;
52274;SDS011;38228;50.940;4.024;2023-11-18T05:17:22;16.92;;;4.43;;
52274;SDS011;38228;50.940;4.024;2023-11-18T05:19:48;18.42;;;4.22;;
52274;SDS011;38228;50.940;4.024;2023-11-18T05:22:13;18.52;;;4.22;;
52274;SDS011;38228;50.940;4.024;2023-11-18T05:24:39;14.60;;;3.38;;
52274;SDS011;38228;50.940;4.024;2023-11-18T05:27:05;14.70;;;4.03;;
52274;SDS011;38228;50.940;4.024;2023-11-18T05:29:31;14.23;;;3.65;;
52274;SDS011;38228;50.940;4.024;2023-11-18T05:31:57;16.73;;;4.15;;
52274;SDS011;38228;50.940;4.024;2023-11-18T05:34:23;12.48;;;3.40;;
52274;SDS011;38228;50.940;4.024;2023-11-18T05:36:49;15.73;;;3.65;;
52274;SDS011;38228;50.940;4.024;2023-11-18T05:39:19;16.05;;;3.97;;
52274;SDS011;38228;50.940;4.024;2023-11-18T05:41:46;20.35;;;3.38;;
52274;SDS011;38228;50.940;4.024;2023-11-18T05:44:15;15.35;;;3.80;;
52274;SDS011;38228;50.940;4.024;2023-11-18T05:46:47;10.98;;;3.13;;
52274;SDS011;38228;50.940;4.024;2023-11-18T05:49:16;13.65;;;3.35;;
52274;SDS011;38228;50.940;4.024;2023-11-18T05:51:43;10.60;;;3.20;;
52274;SDS011;38228;50.940;4.024;2023-11-18T05:54:09;10.95;;;3.15;;
52274;SDS011;38228;50.940;4.024;2023-11-18T05:56:35;19.98;;;4.53;;
52274;SDS011;38228;50.940;4.024;2023-11-18T05:59:01;14.88;;;3.85;;
52274;SDS011;38228;50.940;4.024;2023-11-18T06:01:30;16.60;;;3.80;;
52274;SDS011;38228;50.940;4.024;2023-11-18T06:03:56;11.73;;;3.58;;
52274;SDS011;38228;50.940;4.024;2023-11-18T06:06:22;16.35;;;2.92;;
52274;SDS011;38228;50.940;4.024;2023-11-18T06:08:48;14.93;;;3.10;;
52274;SDS011;38228;50.940;4.024;2023-11-18T06:11:15;13.75;;;3.45;;
52274;SDS011;38228;50.940;4.024;2023-11-18T06:13:41;15.60;;;3.10;;
52274;SDS011;38228;50.940;4.024;2023-11-18T06:16:09;16.08;;;3.72;;
52274;SDS011;38228;50.940;4.024;2023-11-18T06:18:39;13.70;;;3.55;;
52274;SDS011;38228;50.940;4.024;2023-11-18T06:21:07;14.30;;;3.40;;
52274;SDS011;38228;50.940;4.024;2023-11-18T06:23:35;17.55;;;3.10;;
52274;SDS011;38228;50.940;4.024;2023-11-18T06:26:01;13.85;;;3.53;;
52274;SDS011;38228;50.940;4.024;2023-11-18T06:28:27;19.63;;;3.88;;
52274;SDS011;38228;50.940;4.024;2023-11-18T06:30:53;18.20;;;3.50;;
52274;SDS011;38228;50.940;4.024;2023-11-18T06:33:19;16.75;;;3.45;;
52274;SDS011;38228;50.940;4.024;2023-11-18T06:35:48;12.73;;;3.47;;
52274;SDS011;38228;50.940;4.024;2023-11-18T06:38:14;10.80;;;3.08;;
52274;SDS011;38228;50.940;4.024;2023-11-18T06:40:40;22.95;;;4.15;;
52274;SDS011;38228;50.940;4.024;2023-11-18T06:43:06;14.32;;;4.45;;
52274;SDS011;38228;50.940;4.024;2023-11-18T06:45:36;14.23;;;3.72;;
52274;SDS011;38228;50.940;4.024;2023-11-18T06:48:05;17.52;;;3.92;;
52274;SDS011;38228;50.940;4.024;2023-11-18T06:50:31;18.33;;;4.05;;
52274;SDS011;38228;50.940;4.024;2023-11-18T06:52:57;15.85;;;4.07;;
52274;SDS011;38228;50.940;4.024;2023-11-18T06:55:23;19.95;;;4.25;;
52274;SDS011;38228;50.940;4.024;2023-11-18T06:57:51;20.73;;;4.10;;
52274;SDS011;38228;50.940;4.024;2023-11-18T07:00:17;19.80;;;4.57;;
52274;SDS011;38228;50.940;4.024;2023-11-18T07:02:43;23.05;;;4.63;;
52274;SDS011;38228;50.940;4.024;2023-11-18T07:05:09;20.40;;;4.65;;
52274;SDS011;38228;50.940;4.024;2023-11-18T07:07:35;22.00;;;4.25;;
52274;SDS011;38228;50.940;4.024;2023-11-18T07:10:02;21.02;;;5.65;;
52274;SDS011;38228;50.940;4.024;2023-11-18T07:12:29;22.42;;;4.57;;
52274;SDS011;38228;50.940;4.024;2023-11-18T07:14:58;18.83;;;4.55;;
52274;SDS011;38228;50.940;4.024;2023-11-18T07:17:26;18.52;;;4.15;;
52274;SDS011;38228;50.940;4.024;2023-11-18T07:19:51;18.17;;;4.32;;
52274;SDS011;38228;50.940;4.024;2023-11-18T07:22:17;22.02;;;4.82;;
52274;SDS011;38228;50.940;4.024;2023-11-18T07:24:43;20.17;;;4.32;;
52274;SDS011;38228;50.940;4.024;2023-11-18T07:27:08;20.67;;;4.57;;
52274;SDS011;38228;50.940;4.024;2023-11-18T07:29:36;23.95;;;5.57;;
52274;SDS011;38228;50.940;4.024;2023-11-18T07:32:02;22.85;;;5.10;;
52274;SDS011;38228;50.940;4.024;2023-11-18T07:34:30;18.08;;;4.68;;
52274;SDS011;38228;50.940;4.024;2023-11-18T07:36:58;20.27;;;4.90;;
52274;SDS011;38228;50.940;4.024;2023-11-18T07:39:24;13.32;;;4.35;;
52274;SDS011;38228;50.940;4.024;2023-11-18T07:42:08;14.98;;;4.95;;
52274;SDS011;38228;50.940;4.024;2023-11-18T07:44:37;18.23;;;4.53;;
52274;SDS011;38228;50.940;4.024;2023-11-18T07:47:04;15.52;;;5.07;;
52274;SDS011;38228;50.940;4.024;2023-11-18T07:49:35;22.77;;;5.70;;
52274;SDS011;38228;50.940;4.024;2023-11-18T07:52:04;23.63;;;4.75;;
52274;SDS011;38228;50.940;4.024;2023-11-18T07:54:31;22.80;;;5.30;;
52274;SDS011;38228;50.940;4.024;2023-11-18T07:56:56;20.35;;;5.72;;
52274;SDS011;38228;50.940;4.024;2023-11-18T07:59:22;21.10;;;5.57;;
52274;SDS011;38228;50.940;4.024;2023-11-18T08:01:49;18.23;;;5.60;;
52274;SDS011;38228;50.940;4.024;2023-11-18T08:04:15;21.90;;;6.57;;
52274;SDS011;38228;50.940;4.024;2023-11-18T08:06:42;24.48;;;6.88;;
52274;SDS011;38228;50.940;4.024;2023-11-18T08:09:08;22.95;;;6.88;;
52274;SDS011;38228;50.940;4.024;2023-11-18T08:11:39;24.02;;;7.70;;
52274;SDS011;38228;50.940;4.024;2023-11-18T08:14:09;23.42;;;7.82;;
52274;SDS011;38228;50.940;4.024;2023-11-18T08:16:35;20.50;;;7.45;;
52274;SDS011;38228;50.940;4.024;2023-11-18T08:19:01;20.98;;;7.88;;
52274;SDS011;38228;50.940;4.024;2023-11-18T08:21:33;24.90;;;7.43;;
52274;SDS011;38228;50.940;4.024;2023-11-18T08:23:59;22.85;;;6.78;;
52274;SDS011;38228;50.940;4.024;2023-11-18T08:26:25;19.45;;;7.18;;
52274;SDS011;38228;50.940;4.024;2023-11-18T08:28:51;19.80;;;7.10;;
52274;SDS011;38228;50.940;4.024;2023-11-18T08:31:17;22.75;;;6.60;;
52274;SDS011;38228;50.940;4.024;2023-11-18T08:33:43;17.73;;;6.82;;
52274;SDS011;38228;50.940;4.024;2023-11-18T08:36:10;24.48;;;7.45;;
52274;SDS011;38228;50.940;4.024;2023-11-18T08:38:37;22.48;;;7.32;;
52274;SDS011;38228;50.940;4.024;2023-11-18T08:41:03;23.05;;;6.60;;
52274;SDS011;38228;50.940;4.024;2023-11-18T08:43:30;16.77;;;6.65;;
52274;SDS011;38228;50.940;4.024;2023-11-18T08:45:56;18.73;;;6.85;;
52274;SDS011;38228;50.940;4.024;2023-11-18T08:48:22;19.15;;;7.05;;
52274;SDS011;38228;50.940;4.024;2023-11-18T08:50:48;16.27;;;6.57;;
52274;SDS011;38228;50.940;4.024;2023-11-18T08:53:14;19.10;;;6.78;;
52274;SDS011;38228;50.940;4.024;2023-11-18T08:55:43;14.13;;;6.50;;
52274;SDS011;38228;50.940;4.024;2023-11-18T08:58:19;18.13;;;6.20;;
52274;SDS011;38228;50.940;4.024;2023-11-18T09:00:48;16.08;;;6.40;;
52274;SDS011;38228;50.940;4.024;2023-11-18T09:06:00;15.63;;;6.25;;
52274;SDS011;38228;50.940;4.024;2023-11-18T09:08:34;12.10;;;5.93;;
52274;SDS011;38228;50.940;4.024;2023-11-18T09:11:04;19.77;;;6.18;;
52274;SDS011;38228;50.940;4.024;2023-11-18T09:13:31;12.40;;;6.13;;
52274;SDS011;38228;50.940;4.024;2023-11-18T09:16:10;14.30;;;6.40;;
52274;SDS011;38228;50.940;4.024;2023-11-18T09:18:39;18.08;;;6.05;;
52274;SDS011;38228;50.940;4.024;2023-11-18T09:21:10;12.30;;;6.53;;
52274;SDS011;38228;50.940;4.024;2023-11-18T09:23:48;15.98;;;7.10;;
52274;SDS011;38228;50.940;4.024;2023-11-18T09:26:14;16.42;;;6.80;;
52274;SDS011;38228;50.940;4.024;2023-11-18T09:28:41;15.52;;;7.35;;
52274;SDS011;38228;50.940;4.024;2023-11-18T09:31:09;13.65;;;6.20;;
52274;SDS011;38228;50.940;4.024;2023-11-18T09:33:38;12.40;;;6.38;;
52274;SDS011;38228;50.940;4.024;2023-11-18T09:36:10;15.50;;;7.18;;
52274;SDS011;38228;50.940;4.024;2023-11-18T09:38:40;14.27;;;6.80;;
52274;SDS011;38228;50.940;4.024;2023-11-18T09:41:06;14.60;;;6.85;;
52274;SDS011;38228;50.940;4.024;2023-11-18T09:43:43;14.05;;;6.53;;
52274;SDS011;38228;50.940;4.024;2023-11-18T09:46:13;13.75;;;6.18;;
52274;SDS011;38228;50.940;4.024;2023-11-18T09:49:00;12.50;;;6.25;;
52274;SDS011;38228;50.940;4.024;2023-11-18T09:51:53;16.58;;;7.18;;
52274;SDS011;38228;50.940;4.024;2023-11-18T09:54:27;17.00;;;6.60;;
52274;SDS011;38228;50.940;4.024;2023-11-18T09:57:19;13.05;;;5.55;;
52274;SDS011;38228;50.940;4.024;2023-11-18T10:00:05;11.68;;;6.38;;
52274;SDS011;38228;50.940;4.024;2023-11-18T10:02:45;13.45;;;5.90;;
52274;SDS011;38228;50.940;4.024;2023-11-18T10:05:12;15.98;;;6.32;;
52274;SDS011;38228;50.940;4.024;2023-11-18T10:07:43;10.77;;;5.95;;
52274;SDS011;38228;50.940;4.024;2023-11-18T10:10:12;14.52;;;5.70;;
52274;SDS011;38228;50.940;4.024;2023-11-18T10:15:14;11.25;;;5.78;;
52274;SDS011;38228;50.940;4.024;2023-11-18T10:17:42;9.43;;;4.70;;
52274;SDS011;38228;50.940;4.024;2023-11-18T10:20:47;11.00;;;5.15;;
52274;SDS011;38228;50.940;4.024;2023-11-18T10:23:21;10.45;;;5.57;;
52274;SDS011;38228;50.940;4.024;2023-11-18T10:33:36;9.05;;;4.88;;
52274;SDS011;38228;50.940;4.024;2023-11-18T10:36:03;11.13;;;5.00;;
52274;SDS011;38228;50.940;4.024;2023-11-18T10:38:32;7.57;;;4.57;;
52274;SDS011;38228;50.940;4.024;2023-11-18T10:41:04;11.30;;;5.07;;
52274;SDS011;38228;50.940;4.024;2023-11-18T10:43:31;14.07;;;5.72;;
52274;SDS011;38228;50.940;4.024;2023-11-18T10:46:06;7.97;;;4.38;;
52274;SDS011;38228;50.940;4.024;2023-11-18T10:48:48;8.02;;;4.50;;
52274;SDS011;38228;50.940;4.024;2023-11-18T10:51:16;6.65;;;4.07;;
52274;SDS011;38228;50.940;4.024;2023-11-18T10:53:48;9.30;;;4.00;;
52274;SDS011;38228;50.940;4.024;2023-11-18T10:56:23;9.52;;;4.13;;
52274;SDS011;38228;50.940;4.024;2023-11-18T10:59:14;8.35;;;3.95;;
52274;SDS011;38228;50.940;4.024;2023-11-18T11:01:41;7.45;;;3.60;;
52274;SDS011;38228;50.940;4.024;2023-11-18T11:04:12;8.70;;;3.55;;
52274;SDS011;38228;50.940;4.024;2023-11-18T11:06:42;8.38;;;3.85;;
52274;SDS011;38228;50.940;4.024;2023-11-18T11:09:20;8.27;;;3.40;;
52274;SDS011;38228;50.940;4.024;2023-11-18T11:11:53;5.45;;;3.45;;
52274;SDS011;38228;50.940;4.024;2023-11-18T11:14:24;5.97;;;3.25;;
52274;SDS011;38228;50.940;4.024;2023-11-18T11:17:00;9.40;;;3.63;;
52274;SDS011;38228;50.940;4.024;2023-11-18T11:19:38;7.93;;;3.47;;
52274;SDS011;38228;50.940;4.024;2023-11-18T11:22:18;7.47;;;3.03;;
52274;SDS011;38228;50.940;4.024;2023-11-18T11:24:54;8.25;;;3.20;;
52274;SDS011;38228;50.940;4.024;2023-11-18T11:30:42;5.72;;;2.28;;
52274;SDS011;38228;50.940;4.024;2023-11-18T11:36:12;5.50;;;2.38;;
52274;SDS011;38228;50.940;4.024;2023-11-18T11:38:48;6.47;;;2.30;;
52274;SDS011;38228;50.940;4.024;2023-11-18T11:41:17;4.78;;;2.00;;
52274;SDS011;38228;50.940;4.024;2023-11-18T11:46:20;4.95;;;2.40;;
52274;SDS011;38228;50.940;4.024;2023-11-18T11:48:49;8.10;;;3.28;;
52274;SDS011;38228;50.940;4.024;2023-11-18T11:51:30;6.60;;;2.33;;
52274;SDS011;38228;50.940;4.024;2023-11-18T11:54:11;7.32;;;2.13;;
52274;SDS011;38228;50.940;4.024;2023-11-18T11:59:17;8.10;;;2.20;;
52274;SDS011;38228;50.940;4.024;2023-11-18T12:02:01;3.47;;;1.60;;
52274;SDS011;38228;50.940;4.024;2023-11-18T12:04:32;4.75;;;1.52;;
52274;SDS011;38228;50.940;4.024;2023-11-18T12:07:02;3.13;;;1.38;;
52274;SDS011;38228;50.940;4.024;2023-11-18T12:09:34;4.00;;;1.55;;
52274;SDS011;38228;50.940;4.024;2023-11-18T12:12:04;6.63;;;1.83;;
52274;SDS011;38228;50.940;4.024;2023-11-18T12:14:50;2.53;;;1.73;;
52274;SDS011;38228;50.940;4.024;2023-11-18T12:17:25;3.20;;;1.63;;
52274;SDS011;38228;50.940;4.024;2023-11-18T12:19:57;2.83;;;1.35;;
52274;SDS011;38228;50.940;4.024;2023-11-18T12:22:41;4.45;;;1.42;;
52274;SDS011;38228;50.940;4.024;2023-11-18T12:25:39;2.35;;;1.17;;
52274;SDS011;38228;50.940;4.024;2023-11-18T12:28:09;2.60;;;1.10;;
52274;SDS011;38228;50.940;4.024;2023-11-18T12:30:39;2.40;;;1.27;;
52274;SDS011;38228;50.940;4.024;2023-11-18T12:33:17;2.67;;;1.20;;
52274;SDS011;38228;50.940;4.024;2023-11-18T12:40:53;8.15;;;1.20;;
52274;SDS011;38228;50.940;4.024;2023-11-18T12:43:46;1.67;;;1.20;;
52274;SDS011;38228;50.940;4.024;2023-11-18T12:49:04;1.98;;;0.90;;
52274;SDS011;38228;50.940;4.024;2023-11-18T12:51:32;1.67;;;0.98;;
52274;SDS011;38228;50.940;4.024;2023-11-18T12:54:01;4.32;;;1.25;;
52274;SDS011;38228;50.940;4.024;2023-11-18T12:56:27;1.58;;;0.75;;
52274;SDS011;38228;50.940;4.024;2023-11-18T12:58:55;1.52;;;0.77;;
52274;SDS011;38228;50.940;4.024;2023-11-18T13:01:21;2.78;;;1.30;;
52274;SDS011;38228;50.940;4.024;2023-11-18T13:03:47;1.23;;;0.75;;
52274;SDS011;38228;50.940;4.024;2023-11-18T13:06:13;2.63;;;1.20;;
52274;SDS011;38228;50.940;4.024;2023-11-18T13:08:42;1.45;;;0.82;;
52274;SDS011;38228;50.940;4.024;2023-11-18T13:11:08;0.75;;;0.65;;
52274;SDS011;38228;50.940;4.024;2023-11-18T13:13:41;2.65;;;1.10;;
52274;SDS011;38228;50.940;4.024;2023-11-18T13:16:07;1.55;;;0.95;;
52274;SDS011;38228;50.940;4.024;2023-11-18T13:18:42;1.70;;;0.80;;
52274;SDS011;38228;50.940;4.024;2023-11-18T13:21:18;1.90;;;0.73;;
52274;SDS011;38228;50.940;4.024;2023-11-18T13:23:46;1.65;;;1.10;;
52274;SDS011;38228;50.940;4.024;2023-11-18T13:26:17;2.47;;;0.90;;
52274;SDS011;38228;50.940;4.024;2023-11-18T13:28:47;1.17;;;0.80;;
52274;SDS011;38228;50.940;4.024;2023-11-18T13:31:14;1.10;;;0.70;;
52274;SDS011;38228;50.940;4.024;2023-11-18T13:33:47;0.73;;;0.73;;
52274;SDS011;38228;50.940;4.024;2023-11-18T13:36:16;1.63;;;0.82;;
52274;SDS011;38228;50.940;4.024;2023-11-18T13:38:42;1.20;;;0.88;;
52274;SDS011;38228;50.940;4.024;2023-11-18T13:41:09;1.85;;;0.90;;
52274;SDS011;38228;50.940;4.024;2023-11-18T13:43:43;1.05;;;0.82;;
52274;SDS011;38228;50.940;4.024;2023-11-18T13:46:10;1.10;;;0.80;;
52274;SDS011;38228;50.940;4.024;2023-11-18T13:48:37;2.58;;;1.00;;
52274;SDS011;38228;50.940;4.024;2023-11-18T13:51:06;1.88;;;1.25;;
52274;SDS011;38228;50.940;4.024;2023-11-18T13:53:40;2.20;;;1.20;;
52274;SDS011;38228;50.940;4.024;2023-11-18T13:56:09;2.00;;;1.20;;
52274;SDS011;38228;50.940;4.024;2023-11-18T13:58:36;2.13;;;0.88;;
52274;SDS011;38228;50.940;4.024;2023-11-18T14:01:08;1.80;;;1.02;;
52274;SDS011;38228;50.940;4.024;2023-11-18T14:03:37;1.38;;;0.90;;
52274;SDS011;38228;50.940;4.024;2023-11-18T14:06:08;1.75;;;0.80;;
52274;SDS011;38228;50.940;4.024;2023-11-18T14:08:37;1.58;;;1.20;;
52274;SDS011;38228;50.940;4.024;2023-11-18T14:11:04;1.85;;;1.02;;
52274;SDS011;38228;50.940;4.024;2023-11-18T14:13:31;1.80;;;1.30;;
52274;SDS011;38228;50.940;4.024;2023-11-18T14:16:00;1.75;;;0.95;;
52274;SDS011;38228;50.940;4.024;2023-11-18T14:18:29;1.45;;;1.00;;
52274;SDS011;38228;50.940;4.024;2023-11-18T14:20:55;1.40;;;0.90;;
52274;SDS011;38228;50.940;4.024;2023-11-18T14:23:22;2.17;;;1.40;;
52274;SDS011;38228;50.940;4.024;2023-11-18T14:25:48;2.28;;;1.00;;
52274;SDS011;38228;50.940;4.024;2023-11-18T14:28:14;1.60;;;0.70;;
52274;SDS011;38228;50.940;4.024;2023-11-18T14:30:40;2.05;;;0.90;;
52274;SDS011;38228;50.940;4.024;2023-11-18T14:33:07;1.88;;;1.27;;
52274;SDS011;38228;50.940;4.024;2023-11-18T14:35:33;1.80;;;1.10;;
52274;SDS011;38228;50.940;4.024;2023-11-18T14:37:59;1.42;;;1.15;;
52274;SDS011;38228;50.940;4.024;2023-11-18T14:40:26;2.83;;;1.20;;
52274;SDS011;38228;50.940;4.024;2023-11-18T14:42:53;1.88;;;1.10;;
52274;SDS011;38228;50.940;4.024;2023-11-18T14:45:19;1.95;;;1.52;;
52274;SDS011;38228;50.940;4.024;2023-11-18T14:47:45;1.73;;;1.20;;
52274;SDS011;38228;50.940;4.024;2023-11-18T14:50:12;2.40;;;1.13;;
52274;SDS011;38228;50.940;4.024;2023-11-18T14:52:45;1.98;;;1.30;;
52274;SDS011;38228;50.940;4.024;2023-11-18T14:55:16;1.60;;;1.00;;
52274;SDS011;38228;50.940;4.024;2023-11-18T14:57:43;1.15;;;0.90;;
52274;SDS011;38228;50.940;4.024;2023-11-18T15:00:10;2.20;;;1.00;;
52274;SDS011;38228;50.940;4.024;2023-11-18T15:02:47;1.55;;;1.17;;
52274;SDS011;38228;50.940;4.024;2023-11-18T15:05:17;3.45;;;2.13;;
52274;SDS011;38228;50.940;4.024;2023-11-18T15:07:48;1.50;;;1.17;;
52274;SDS011;38228;50.940;4.024;2023-11-18T15:10:21;1.67;;;1.20;;
52274;SDS011;38228;50.940;4.024;2023-11-18T15:12:57;1.55;;;1.02;;
52274;SDS011;38228;50.940;4.024;2023-11-18T15:15:26;1.60;;;1.30;;
52274;SDS011;38228;50.940;4.024;2023-11-18T15:17:57;2.75;;;1.30;;
52274;SDS011;38228;50.940;4.024;2023-11-18T15:20:24;2.22;;;1.48;;